createdAt,value
2023-05-19T00:08:05.756Z,79.52
2023-05-19T00:18:14.035Z,79.38
2023-05-19T00:28:17.211Z,80.51
2023-05-19T00:38:21.715Z,82.00
2023-05-19T00:48:26.483Z,84.27
2023-05-19T00:58:32.810Z,86.86
2023-05-19T01:08:37.615Z,89.46
2023-05-19T01:18:48.724Z,92.74
2023-05-19T01:29:08.885Z,95.01
2023-05-19T01:39:14.777Z,96.44
2023-05-19T01:49:18.510Z,96.60
2023-05-19T01:59:43.558Z,97.88
2023-05-19T02:09:54.320Z,98.42
2023-05-19T02:19:58.611Z,98.74
2023-05-19T02:30:01.611Z,99.94
2023-05-19T02:40:07.776Z,100.00
2023-05-19T02:50:10.971Z,100.00
2023-05-19T03:00:16.500Z,100.00
2023-05-19T03:10:20.489Z,100.00
2023-05-19T03:20:25.292Z,100.00
2023-05-19T03:30:28.359Z,100.00
2023-05-19T03:40:45.150Z,100.00
2023-05-19T03:50:50.172Z,100.00
2023-05-19T04:01:01.443Z,100.00
2023-05-19T04:11:04.549Z,100.00
2023-05-19T04:21:08.910Z,100.00
2023-05-19T04:31:12.917Z,100.00
2023-05-19T04:41:17.692Z,100.00
2023-05-19T04:51:21.463Z,100.00
2023-05-19T05:01:26.478Z,100.00
2023-05-19T05:11:31.213Z,100.00
2023-05-19T05:21:36.510Z,100.00
2023-05-19T05:31:40.035Z,100.00
2023-05-19T05:41:44.821Z,99.89
2023-05-19T05:52:01.797Z,98.00
2023-05-19T06:02:12.300Z,97.13
2023-05-19T06:12:16.082Z,93.59
2023-05-19T06:22:25.038Z,91.92
2023-05-19T06:32:30.655Z,90.89
2023-05-19T06:42:36.430Z,89.15
2023-05-19T06:53:04.188Z,87.04
2023-05-19T07:03:08.956Z,85.34
2023-05-19T07:13:12.552Z,82.34
2023-05-19T07:23:17.549Z,79.69
2023-05-19T07:33:22.496Z,77.38
2023-05-19T07:43:26.932Z,75.36
2023-05-19T07:53:29.970Z,72.74
2023-05-19T08:03:34.787Z,70.29
2023-05-19T08:13:38.032Z,68.29
2023-05-19T08:23:42.370Z,65.10
2023-05-19T08:33:45.719Z,63.01
2023-05-19T08:43:50.561Z,61.27
2023-05-19T08:53:58.137Z,60.56
2023-05-19T09:04:02.988Z,55.69
2023-05-19T09:14:09.389Z,50.51
2023-05-19T09:24:19.917Z,49.68
2023-05-19T09:34:26.903Z,47.91
2023-05-19T09:44:37.392Z,45.65
2023-05-19T09:54:43.892Z,47.33
2023-05-19T10:04:56.184Z,45.36
2023-05-19T10:14:59.781Z,46.84
2023-05-19T10:25:11.259Z,42.73
2023-05-19T10:35:33.913Z,44.38
2023-05-19T10:45:46.977Z,44.21
2023-05-19T10:55:56.153Z,45.46
2023-05-19T11:06:22.393Z,42.48
2023-05-19T11:16:30.041Z,42.88
2023-05-19T11:26:44.247Z,41.27
2023-05-19T11:36:48.293Z,41.22
2023-05-19T11:46:52.854Z,39.32
2023-05-19T11:56:56.275Z,40.88
2023-05-19T12:07:00.834Z,39.48
2023-05-19T12:17:12.615Z,37.96
2023-05-19T12:27:19.586Z,39.54
2023-05-19T12:37:22.813Z,38.50
2023-05-19T12:47:33.684Z,38.40
2023-05-19T12:57:37.823Z,39.99
2023-05-19T13:07:42.172Z,37.78
2023-05-19T13:17:46.434Z,38.81
2023-05-19T13:27:51.096Z,36.37
2023-05-19T13:37:54.211Z,36.86
2023-05-19T13:47:58.710Z,35.37
2023-05-19T13:58:01.884Z,36.29
2023-05-19T14:08:12.919Z,37.00
2023-05-19T14:18:17.142Z,37.41
2023-05-19T14:28:25.525Z,34.49
2023-05-19T14:38:29.656Z,34.94
2023-05-19T14:48:41.458Z,34.35
2023-05-19T14:58:54.663Z,34.29
2023-05-19T15:08:59.220Z,34.08
2023-05-19T15:19:12.488Z,36.05
2023-05-19T15:29:18.215Z,37.19
2023-05-19T15:39:22.450Z,37.59
2023-05-19T15:49:27.817Z,38.14
2023-05-19T15:59:34.655Z,40.12
2023-05-19T16:09:54.179Z,39.88
2023-05-19T16:19:57.134Z,39.69
2023-05-19T16:30:11.811Z,40.00
2023-05-19T16:40:15.115Z,40.43
2023-05-19T16:50:22.776Z,39.87
2023-05-19T17:00:29.853Z,40.29
2023-05-19T17:10:40.308Z,40.81
2023-05-19T17:20:44.190Z,40.52
2023-05-19T17:30:50.386Z,40.82
2023-05-19T17:40:54.685Z,41.54
2023-05-19T17:51:00.071Z,41.50
2023-05-19T18:01:03.657Z,42.50
2023-05-19T18:11:08.874Z,43.20
2023-05-19T18:21:14.385Z,43.86
2023-05-19T18:31:19.960Z,44.06
2023-05-19T18:41:23.404Z,44.87
2023-05-19T18:51:28.101Z,45.68
2023-05-19T19:01:31.241Z,46.54
2023-05-19T19:11:35.890Z,47.60
2023-05-19T19:21:39.727Z,48.93
2023-05-19T19:31:44.195Z,49.88
2023-05-19T19:41:47.174Z,50.66
2023-05-19T19:51:51.516Z,51.30
2023-05-19T20:01:54.617Z,52.65
2023-05-19T20:11:59.044Z,53.41
2023-05-19T20:22:02.139Z,54.56
2023-05-19T20:32:07.190Z,54.95
2023-05-19T20:42:11.273Z,56.30
2023-05-19T20:52:16.561Z,57.01
2023-05-19T21:02:19.550Z,57.97
2023-05-19T21:12:25.304Z,58.76
2023-05-19T21:22:28.997Z,59.16
2023-05-19T21:32:33.413Z,59.72
2023-05-19T21:42:36.807Z,60.49
2023-05-19T21:52:41.159Z,60.46
2023-05-19T22:02:44.521Z,60.47
2023-05-19T22:12:48.884Z,61.14
2023-05-19T22:22:51.861Z,61.01
2023-05-19T22:32:56.541Z,61.86
2023-05-19T22:42:59.546Z,62.00
2023-05-19T22:53:04.004Z,62.72
2023-05-19T23:03:07.083Z,63.24
2023-05-19T23:13:11.999Z,64.10
2023-05-19T23:23:15.126Z,65.63
2023-05-19T23:33:19.539Z,67.49
2023-05-19T23:43:22.534Z,68.88
2023-05-19T23:53:27.135Z,70.59
